Svanen — LKXK — position and weather

sailwx.info

Track history (hours):
 
Tides and Currents Weather Stations Pressure Air Temp Water Temp Dewpoint Dewpoint Depression Visibility Wind Speed Wind Dir Waves Ship Positions

Svanen (Norway)

Ship's website: http://www.svanen.no/english/english.php1

Last reported at 2016-Aug-21 08:33 UTC. Time now 2016-Aug-24 12:05 UTC.
Position N 59°53' E 010°40'.

Length 27 m; draft 2.8 m.

Type: Sailing vessel. MMSI: 259173000.

Date/timePositionNaut miles runAvg speedWind from/ knotsBaromVisibWave heightAir tempDewpointWater temp
2016-Aug-21 08:33N 59°53' E 010°40'7 6.6
2016-Aug-21 07:34N 59°47' E 010°33'7 6.7
2016-Aug-21 06:31N 59°40' E 010°34'0 0.0
2016-Aug-20 17:13N 59°40' E 010°35'2 2.4
2016-Aug-20 16:34N 59°39' E 010°37'8 7.7
2016-Aug-20 15:33N 59°31' E 010°36'8 7.9
2016-Aug-20 14:34N 59°23' E 010°35'8 8.1
2016-Aug-20 13:34N 59°15' E 010°38'8 7.7
2016-Aug-20 12:33N 59°08' E 010°35'8 8.1
2016-Aug-20 11:34N 59°01' E 010°26'8 7.9
2016-Aug-20 10:34N 58°57' E 010°13'  
2016-Aug-16 16:33N 58°23' E 008°52'8 7.7
2016-Aug-16 15:32N 58°19' E 009°04'8 7.9
2016-Aug-16 14:33N 58°15' E 009°17'55 6.8
2016-Aug-16 06:31N 57°45' E 010°43'5 0.3
2016-Aug-15 17:31N 57°43' E 010°35'  
2016-Aug-13 08:25N 58°42' E 010°12'6 6.7
2016-Aug-13 07:31N 58°47' E 010°11'7 7.3
2016-Aug-13 06:32N 58°54' E 010°07'6 5.9
2016-Aug-13 05:33N 58°60' E 010°02'0 0.0
2016-Aug-13 00:19N 58°60' E 010°02'0 0.0
2016-Aug-12 08:04N 58°60' E 010°02'0 0.0
2016-Aug-12 04:33N 58°60' E 010°02'0 0.0
2016-Aug-12 03:28N 58°60' E 010°02'0 0.0
2016-Aug-12 02:33N 58°60' E 010°02'0 0.0
2016-Aug-12 01:28N 58°60' E 010°02'0 0.0
2016-Aug-12 00:31N 58°60' E 010°02'0 0.0
2016-Aug-11 23:03N 58°60' E 010°02'0 0.0
2016-Aug-11 22:28N 58°60' E 010°02'0 0.0
2016-Aug-11 17:23N 58°60' E 010°02'4 5.2
2016-Aug-11 16:33N 58°59' E 010°11'8 7.5
2016-Aug-11 15:33N 59°00' E 010°25'7 7.5
2016-Aug-11 14:34N 59°01' E 010°40'7 7.1
2016-Aug-11 13:33N 59°01' E 010°54'6 6.0
2016-Aug-11 12:33N 59°07' E 010°58'6 5.8
2016-Aug-11 11:33N 59°12' E 010°57'0 0.0
2016-Aug-11 10:31N 59°12' E 010°57'0 0.0
2016-Aug-11 09:31N 59°12' E 010°57'  
Track history (hours):
 
Tides and Currents Weather Stations Pressure Air Temp Water Temp Dewpoint Dewpoint Depression Visibility Wind Speed Wind Dir Waves Ship Positions

Svanen (Norway)

Ship's website: http://www.svanen.no/english/english.php1

Last reported at 2016-Aug-21 08:33 UTC. Time now 2016-Aug-24 12:05 UTC.
Position N 59°53' E 010°40'.

Length 27 m; draft 2.8 m.

Type: Sailing vessel. MMSI: 259173000.

Date/timePositionNaut miles runAvg speedWind from/ knotsBaromVisibWave heightAir tempDewpointWater temp
2016-Aug-21 08:33N 59°53' E 010°40'7 6.6
2016-Aug-21 07:34N 59°47' E 010°33'7 6.7
2016-Aug-21 06:31N 59°40' E 010°34'0 0.0
2016-Aug-20 17:13N 59°40' E 010°35'2 2.4
2016-Aug-20 16:34N 59°39' E 010°37'8 7.7
2016-Aug-20 15:33N 59°31' E 010°36'8 7.9
2016-Aug-20 14:34N 59°23' E 010°35'8 8.1
2016-Aug-20 13:34N 59°15' E 010°38'8 7.7
2016-Aug-20 12:33N 59°08' E 010°35'8 8.1
2016-Aug-20 11:34N 59°01' E 010°26'8 7.9
2016-Aug-20 10:34N 58°57' E 010°13'  
2016-Aug-16 16:33N 58°23' E 008°52'8 7.7
2016-Aug-16 15:32N 58°19' E 009°04'8 7.9
2016-Aug-16 14:33N 58°15' E 009°17'55 6.8
2016-Aug-16 06:31N 57°45' E 010°43'5 0.3
2016-Aug-15 17:31N 57°43' E 010°35'  
2016-Aug-13 08:25N 58°42' E 010°12'6 6.7
2016-Aug-13 07:31N 58°47' E 010°11'7 7.3
2016-Aug-13 06:32N 58°54' E 010°07'6 5.9
2016-Aug-13 05:33N 58°60' E 010°02'0 0.0
2016-Aug-13 00:19N 58°60' E 010°02'0 0.0
2016-Aug-12 08:04N 58°60' E 010°02'0 0.0
2016-Aug-12 04:33N 58°60' E 010°02'0 0.0
2016-Aug-12 03:28N 58°60' E 010°02'0 0.0
2016-Aug-12 02:33N 58°60' E 010°02'0 0.0
2016-Aug-12 01:28N 58°60' E 010°02'0 0.0
2016-Aug-12 00:31N 58°60' E 010°02'0 0.0
2016-Aug-11 23:03N 58°60' E 010°02'0 0.0
2016-Aug-11 22:28N 58°60' E 010°02'0 0.0
2016-Aug-11 17:23N 58°60' E 010°02'4 5.2
2016-Aug-11 16:33N 58°59' E 010°11'8 7.5
2016-Aug-11 15:33N 59°00' E 010°25'7 7.5
2016-Aug-11 14:34N 59°01' E 010°40'7 7.1
2016-Aug-11 13:33N 59°01' E 010°54'6 6.0
2016-Aug-11 12:33N 59°07' E 010°58'6 5.8
2016-Aug-11 11:33N 59°12' E 010°57'0 0.0
2016-Aug-11 10:31N 59°12' E 010°57'0 0.0
2016-Aug-11 09:31N 59°12' E 010°57'  

Dump ship's entire track history